Weather reports worldwide

Advertisment
Malaga,Cmt, Spain (8481): temperature & dewpoint: 18.03.2019 17:00:00 - 24.03.2019 17:00:00 (CET)Malaga,Cmt, Spain (8481): wind speed & gusts: 18.03.2019 17:00:00 - 24.03.2019 17:00:00 (CET)Malaga,Cmt, Spain (8481): wind direction: 18.03.2019 17:00:00 - 24.03.2019 17:00:00 (CET)Malaga,Cmt, Spain (8481): reduced air pressure: 18.03.2019 17:00:00 - 24.03.2019 17:00:00 (CET)Malaga,Cmt, Spain (8481): precipitation: 18.03.2019 17:00:00 - 24.03.2019 17:00:00 (CET)
Date & Time tt [°C] td [°C] ff [km/h] ff [kn] fx [km/h] fx [kn] dd ppp [hPa] rr [mm]
24.03.2019 17:00:00 - - - - - - - - -
24.03.2019 16:00:00 17,2 10,5 22 12 38 21 ESE 1021,4 0,0
24.03.2019 15:00:00 17,0 11,0 18 10 32 17 SE 1021,9 0,0
24.03.2019 14:00:00 17,8 11,6 13 7 19 10 SE 1022,4 0,0
24.03.2019 13:00:00 17,3 12,0 8 4 14 7 S 1022,6 -
24.03.2019 12:00:00 17,3 11,8 9 5 16 8 S 1022,7 0,0
24.03.2019 11:00:00 18,0 12,0 0 0 9 5 ENE 1022,4 0,0
24.03.2019 10:00:00 16,4 12,1 1 0 8 4 N 1022,3 0,0
24.03.2019 09:00:00 15,8 11,8 3 2 12 7 N 1021,9 0,0
24.03.2019 08:00:00 13,8 10,4 5 3 12 6 NNW 1021,7 0,0
24.03.2019 07:00:00 13,1 9,6 6 3 11 6 N 1021,5 -
24.03.2019 06:00:00 13,3 9,3 6 4 11 6 N 1021,4 0,0
24.03.2019 05:00:00 13,8 9,7 4 2 9 5 N 1021,4 0,0
24.03.2019 04:00:00 14,6 10,4 3 2 10 5 SE 1021,1 0,0
24.03.2019 03:00:00 15,0 10,4 8 4 19 11 ESE 1021,7 0,0
24.03.2019 02:00:00 15,0 10,8 8 4 18 10 ESE 1021,8 0,0
24.03.2019 01:00:00 15,1 11,1 9 5 23 12 ESE 1022,2 -
24.03.2019 00:00:00 15,1 11,4 9 5 29 16 ESE 1022,6 0,0
23.03.2019 23:00:00 15,4 11,8 16 8 27 15 SE 1022,9 0,0
23.03.2019 22:00:00 15,4 11,3 16 8 31 17 ESE 1022,9 0,0
23.03.2019 21:00:00 15,5 11,9 14 8 31 17 ESE 1022,7 0,0
23.03.2019 20:00:00 15,4 11,3 16 9 37 20 ESE 1022,3 0,0
23.03.2019 19:00:00 15,8 11,2 20 11 39 21 ESE 1022,1 -
23.03.2019 18:00:00 16,8 10,9 18 10 42 23 E 1021,9 0,0
23.03.2019 17:00:00 17,0 10,9 25 14 42 23 ESE 1022,3 0,0
23.03.2019 16:00:00 17,8 10,9 23 12 40 22 ESE 1022,2 0,0
23.03.2019 15:00:00 17,7 10,8 28 15 41 22 SE 1022,7 0,0
23.03.2019 14:00:00 18,3 11,6 22 12 37 20 SE 1023,6 0,0
23.03.2019 13:00:00 16,8 11,6 21 11 34 19 SE 1024,6 -
23.03.2019 12:00:00 16,9 11,0 20 11 39 21 ESE 1025,1 0,0
23.03.2019 11:00:00 17,9 11,2 18 10 29 16 ESE 1025,0 0,0
23.03.2019 10:00:00 17,1 11,1 14 8 26 14 SE 1025,2 0,0
23.03.2019 09:00:00 14,5 11,1 3 2 7 4 WSW 1025,2 0,0
23.03.2019 08:00:00 10,9 8,7 5 3 6 4 W 1025,3 0,0
23.03.2019 07:00:00 11,1 8,7 4 2 7 4 W 1024,8 -
23.03.2019 06:00:00 12,3 9,3 6 4 9 5 W 1024,9 0,0
23.03.2019 05:00:00 12,3 9,3 5 3 7 4 W 1025,0 0,0
23.03.2019 04:00:00 13,4 9,4 3 1 7 4 E 1025,3 0,0
23.03.2019 03:00:00 13,6 9,7 4 2 10 5 ESE 1026,0 0,0
23.03.2019 02:00:00 13,9 9,7 6 4 12 6 ESE 1026,3 0,0
23.03.2019 01:00:00 13,8 9,7 4 2 15 8 E 1026,5 -
23.03.2019 00:00:00 14,4 10,2 6 3 19 11 E 1026,9 0,0
22.03.2019 23:00:00 14,0 10,0 8 4 18 10 E 1027,1 0,0
22.03.2019 22:00:00 14,2 9,7 10 5 23 13 E 1026,9 0,0
22.03.2019 21:00:00 14,3 9,7 16 8 31 17 ESE 1026,5 0,0
22.03.2019 20:00:00 14,6 9,4 18 10 29 16 ESE 1025,8 0,0
22.03.2019 19:00:00 15,3 9,4 14 8 27 15 ESE 1025,7 -
22.03.2019 18:00:00 16,1 8,8 16 8 26 14 ESE 1025,2 0,0
22.03.2019 17:00:00 16,9 9,3 14 8 29 15 ESE 1025,4 0,0
22.03.2019 16:00:00 17,4 9,3 17 9 31 17 SE 1025,6 0,0
22.03.2019 15:00:00 17,4 8,3 18 10 30 16 SE 1025,9 0,0
22.03.2019 14:00:00 16,6 7,0 18 10 32 18 SE 1026,3 0,0
22.03.2019 13:00:00 17,8 7,3 18 10 29 16 SE 1026,4 -
22.03.2019 12:00:00 17,2 6,7 17 9 29 16 SE 1026,8 0,0
22.03.2019 11:00:00 16,5 6,1 15 8 27 15 ESE 1027,2 0,0
22.03.2019 10:00:00 15,7 8,0 8 4 15 8 SSW 1027,3 0,0
22.03.2019 09:00:00 13,5 8,4 8 4 10 5 WSW 1027,1 0,0
22.03.2019 08:00:00 11,0 6,5 2 1 7 4 W 1027,0 0,0
22.03.2019 07:00:00 11,5 6,4 5 3 13 7 NE 1026,5 -
22.03.2019 06:00:00 12,2 7,1 6 3 17 9 NE 1026,4 0,0
22.03.2019 05:00:00 12,7 7,6 6 3 16 9 E 1026,3 0,0
22.03.2019 04:00:00 13,0 7,7 6 3 16 9 ENE 1026,5 0,0
22.03.2019 03:00:00 13,6 7,6 10 5 26 14 E 1026,7 0,0
22.03.2019 02:00:00 14,3 7,8 14 8 29 15 ESE 1027,1 0,0
22.03.2019 01:00:00 14,4 7,8 16 9 30 16 ESE 1027,3 -
22.03.2019 00:00:00 14,5 8,0 18 10 29 16 ESE 1027,6 0,0
21.03.2019 23:00:00 14,3 8,9 16 8 27 15 ESE 1027,6 0,0
21.03.2019 22:00:00 14,4 8,5 13 7 27 14 ESE 1027,5 0,0
21.03.2019 21:00:00 14,1 8,9 10 5 23 13 SE 1027,1 0,0
21.03.2019 20:00:00 14,3 7,6 13 7 24 13 ESE 1026,5 0,0
21.03.2019 19:00:00 14,6 7,4 13 7 25 13 ESE 1026,4 -
21.03.2019 18:00:00 15,4 6,7 15 8 29 16 SE 1026,0 0,0
21.03.2019 17:00:00 16,4 6,5 17 9 28 15 SE 1025,9 0,0
21.03.2019 16:00:00 17,2 6,4 19 10 33 18 SE 1026,0 0,0
21.03.2019 15:00:00 18,0 5,6 18 10 35 19 SE 1026,0 0,0
21.03.2019 14:00:00 17,9 4,8 21 11 36 19 SE 1026,6 0,0
21.03.2019 13:00:00 17,0 3,6 21 12 33 18 ESE 1027,2 -
21.03.2019 12:00:00 16,3 3,8 20 11 29 16 SE 1027,5 0,0
21.03.2019 11:00:00 16,0 3,4 14 8 26 14 ESE 1027,6 0,0
21.03.2019 10:00:00 14,6 6,7 3 1 10 5 SW 1027,6 0,0
21.03.2019 09:00:00 12,4 7,4 8 4 9 5 WSW 1027,7 0,0
21.03.2019 08:00:00 10,5 6,1 1 1 9 5 NE 1027,2 0,0
21.03.2019 07:00:00 11,0 5,9 5 3 12 6 ENE 1026,7 -
21.03.2019 06:00:00 11,2 6,1 8 4 13 7 ENE 1026,4 0,0
21.03.2019 05:00:00 11,4 6,1 6 3 13 7 ENE 1026,4 0,0
21.03.2019 04:00:00 12,2 6,4 5 3 19 10 ENE 1026,4 0,0
21.03.2019 03:00:00 12,7 7,4 8 4 23 13 E 1027,0 0,0
21.03.2019 02:00:00 12,7 8,1 10 5 23 12 E 1027,5 0,0
21.03.2019 01:00:00 12,7 8,8 11 6 28 15 E 1027,8 -
21.03.2019 00:00:00 12,8 8,7 12 6 26 14 E 1028,5 0,0
20.03.2019 23:00:00 12,6 8,5 16 9 30 16 E 1028,9 0,0
20.03.2019 22:00:00 13,0 8,9 17 9 35 19 E 1028,5 0,0
20.03.2019 21:00:00 14,2 7,4 15 8 27 15 SE 1027,9 0,0
20.03.2019 20:00:00 14,1 7,6 17 9 27 15 ESE 1027,3 0,0
20.03.2019 19:00:00 14,4 7,8 19 10 30 16 SE 1026,8 -
20.03.2019 18:00:00 15,3 7,8 18 10 29 15 SE 1026,2 0,0
20.03.2019 17:00:00 16,2 8,0 17 9 30 16 ESE 1025,9 0,0
20.03.2019 16:00:00 15,7 7,4 17 9 28 15 SE 1026,3 0,0
20.03.2019 15:00:00 17,3 8,4 16 9 30 16 SE 1026,6 0,0
20.03.2019 14:00:00 16,7 7,6 15 8 29 16 ESE 1027,2 0,0
20.03.2019 13:00:00 15,8 7,8 17 9 31 17 ESE 1027,8 -
20.03.2019 12:00:00 14,5 9,0 16 9 29 16 ESE 1028,1 0,0
20.03.2019 11:00:00 12,7 9,9 14 8 26 14 SE 1028,1 1,6
20.03.2019 10:00:00 12,9 9,3 9 5 28 15 ESE 1027,7 0,1
20.03.2019 09:00:00 14,1 8,7 12 6 26 14 SE 1026,9 0,0
20.03.2019 08:00:00 13,6 8,8 6 4 18 10 E 1026,5 0,0
20.03.2019 07:00:00 13,5 8,4 10 5 20 11 E 1025,9 -
20.03.2019 06:00:00 13,6 9,0 11 6 22 12 ESE 1025,6 0,0
20.03.2019 05:00:00 13,2 9,8 13 7 24 13 SE 1025,6 0,3
20.03.2019 04:00:00 13,3 11,0 10 6 23 12 ESE 1025,8 0,0
20.03.2019 03:00:00 13,9 10,5 13 7 24 13 ESE 1026,1 0,0
20.03.2019 02:00:00 13,8 11,0 14 8 26 14 ESE 1026,5 0,3
20.03.2019 01:00:00 14,5 11,1 11 6 31 17 ESE 1026,5 -
20.03.2019 00:00:00 14,4 12,1 16 8 31 17 ESE 1026,5 0,0
19.03.2019 23:00:00 15,1 12,0 16 9 37 20 ESE 1026,0 0,0
19.03.2019 22:00:00 15,4 12,0 14 7 22 12 SE 1025,1 0,0
19.03.2019 21:00:00 15,4 12,0 10 6 21 11 ESE 1024,4 0,0
19.03.2019 20:00:00 15,2 11,6 13 7 21 12 ESE 1023,5 0,0
19.03.2019 19:00:00 15,9 11,7 11 6 22 12 ESE 1022,4 -
19.03.2019 18:00:00 17,0 11,7 14 8 24 13 ESE 1021,3 0,0
19.03.2019 17:00:00 18,1 12,1 12 7 27 14 ESE 1020,8 0,0
19.03.2019 16:00:00 18,1 11,4 18 10 28 15 SE 1020,6 0,0
19.03.2019 15:00:00 18,8 11,3 16 9 24 13 SE 1020,6 0,0
19.03.2019 14:00:00 18,8 11,3 14 8 24 13 ESE 1021,5 0,0
19.03.2019 13:00:00 20,6 11,6 16 8 24 13 SSE 1021,9 -
19.03.2019 12:00:00 21,0 10,2 8 4 19 11 W 1022,2 0,0
19.03.2019 11:00:00 18,9 11,2 8 4 16 9 W 1023,0 0,0
19.03.2019 10:00:00 17,5 12,0 4 2 8 4 WSW 1023,3 0,0
19.03.2019 09:00:00 15,3 11,9 5 3 8 4 NE 1023,9 0,0
19.03.2019 08:00:00 13,8 11,9 2 1 6 3 NE 1023,6 0,0
19.03.2019 07:00:00 13,9 11,9 3 2 11 6 E 1023,5 -
19.03.2019 06:00:00 14,1 12,1 6 3 12 7 E 1023,3 0,0
19.03.2019 05:00:00 14,6 12,3 8 4 16 9 ESE 1023,5 0,0
19.03.2019 04:00:00 14,7 12,4 8 5 16 9 E 1024,0 0,0
19.03.2019 03:00:00 15,0 12,6 8 4 19 10 ESE 1024,3 0,0
19.03.2019 02:00:00 15,1 13,2 10 6 20 11 ESE 1024,9 0,0
19.03.2019 01:00:00 15,0 13,2 9 5 18 10 ESE 1025,0 -
19.03.2019 00:00:00 15,3 13,5 8 5 19 10 ESE 1025,2 0,0
18.03.2019 23:00:00 15,3 13,0 11 6 19 10 ESE 1025,1 0,0
18.03.2019 22:00:00 15,4 13,1 8 5 21 11 ESE 1025,1 0,0
18.03.2019 21:00:00 15,6 13,3 13 7 22 12 ESE 1024,5 0,0
18.03.2019 20:00:00 15,5 13,0 10 5 22 12 ESE 1023,9 0,0
18.03.2019 19:00:00 16,1 13,3 13 7 23 12 SE 1023,4 -
18.03.2019 18:00:00 16,8 13,2 16 8 28 15 ESE 1022,8 0,0
18.03.2019 17:00:00 - - 22 12 - - SE - 0,0

tt = temperature
td = dewpoint
ff = wind speed
fx = gusts
dd = wind direction
ppp = reduced air pressure
rr = precipitation

Next stations